Terminal Aerodrome Forecast
Issued by NWS

Home | Current Version | Previous Version | Text Only | Print | Product List | Glossary Off
Versions: 1 2 3 4 5 6 7 8 9 10 11 12 13 14

000
FTUS43 KICT 202320
TAFCNU
TAF
KCNU 202320Z 2100/2124 18005KT P6SM SKC
     FM210300 04011KT P6SM SKC
     FM210700 05013KT P6SM SCT045
     FM211500 05016G23KT P6SM BKN035=

USA.gov is the U.S. government's official web portal to all federal, state and local government web resources and services.